createdAt,value
2018-12-29T12:06:50.949Z,90.30
2018-12-29T12:09:19.332Z,90.00
2018-12-29T12:11:47.741Z,90.00
2018-12-29T12:14:16.127Z,90.00
2018-12-29T12:16:44.509Z,89.90
2018-12-29T12:19:12.916Z,89.40
2018-12-29T12:21:41.557Z,89.30
2018-12-29T12:24:09.970Z,89.10
2018-12-29T12:26:38.366Z,88.40
2018-12-29T12:29:06.778Z,88.60
2018-12-29T12:31:36.278Z,90.10
2018-12-29T12:34:04.705Z,89.20
2018-12-29T12:36:33.570Z,89.10
2018-12-29T12:39:03.562Z,89.60
2018-12-29T12:41:32.355Z,89.60
2018-12-29T12:44:00.938Z,90.10
2018-12-29T12:46:30.267Z,90.20
2018-12-29T12:49:01.454Z,90.20
2018-12-29T12:51:29.871Z,90.20
2018-12-29T12:56:47.297Z,90.00
2018-12-29T12:59:15.979Z,90.10
2018-12-29T13:01:45.057Z,90.20
2018-12-29T13:04:13.843Z,90.00
2018-12-29T13:06:42.431Z,90.10
2018-12-29T13:09:11.322Z,89.80
2018-12-29T13:11:39.738Z,90.10
2018-12-29T13:14:08.146Z,90.10
2018-12-29T13:16:36.658Z,89.90
2018-12-29T13:19:05.034Z,90.00
2018-12-29T13:21:33.843Z,90.00
2018-12-29T13:24:02.227Z,89.70
2018-12-29T13:26:30.641Z,89.50
2018-12-29T13:28:59.492Z,89.30
2018-12-29T13:31:28.118Z,88.50
2018-12-29T13:33:57.174Z,88.60
2018-12-29T13:36:25.695Z,88.90
2018-12-29T13:38:54.242Z,89.00
2018-12-29T13:41:22.628Z,88.70
2018-12-29T13:43:51.249Z,88.60
2018-12-29T13:46:20.363Z,88.60
2018-12-29T13:48:48.770Z,88.40
2018-12-29T13:51:17.148Z,88.80
2018-12-29T13:53:45.550Z,89.00
2018-12-29T13:56:13.955Z,88.80
2018-12-29T13:58:42.898Z,88.90
2018-12-29T14:01:11.284Z,89.40
2018-12-29T14:03:39.874Z,89.30
2018-12-29T14:06:08.287Z,89.10
2018-12-29T14:08:36.698Z,89.40
2018-12-29T14:11:05.431Z,89.00
2018-12-29T14:13:33.811Z,89.30
2018-12-29T14:16:02.217Z,89.80
2018-12-29T14:18:30.811Z,89.50
2018-12-29T14:20:59.262Z,89.80
2018-12-29T14:23:27.639Z,90.10
2018-12-29T14:25:56.046Z,90.10
2018-12-29T14:28:24.663Z,90.10
2018-12-29T14:30:53.038Z,90.00
2018-12-29T14:33:21.467Z,90.00
2018-12-29T14:35:49.851Z,90.00
2018-12-29T14:38:18.262Z,90.20
2018-12-29T14:40:46.642Z,90.10
2018-12-29T14:43:15.173Z,90.20
2018-12-29T14:45:43.559Z,90.30
2018-12-29T14:48:11.936Z,90.30
2018-12-29T14:50:40.346Z,90.30
2018-12-29T14:53:08.726Z,90.30
2018-12-29T14:55:37.137Z,90.20
2018-12-29T14:58:05.520Z,90.20
2018-12-29T15:00:33.932Z,90.20
2018-12-29T15:03:02.314Z,90.20
2018-12-29T15:05:30.038Z,90.30
2018-12-29T15:07:57.734Z,89.70
2018-12-29T15:10:25.420Z,87.90
2018-12-29T15:12:53.146Z,86.80
2018-12-29T15:15:20.837Z,86.00
2018-12-29T15:17:48.648Z,86.40
2018-12-29T15:20:16.843Z,86.10
2018-12-29T15:22:44.575Z,86.40
2018-12-29T15:25:12.271Z,86.20
2018-12-29T15:27:40.459Z,86.50
2018-12-29T15:30:08.181Z,86.80
2018-12-29T15:32:35.866Z,86.50
2018-12-29T15:35:04.085Z,87.20
2018-12-29T15:37:31.781Z,87.40
2018-12-29T15:39:59.469Z,87.70
2018-12-29T15:42:27.685Z,88.10
2018-12-29T15:44:55.373Z,88.50
2018-12-29T15:47:23.264Z,89.00
2018-12-29T15:49:51.282Z,89.00
2018-12-29T15:52:18.976Z,89.20
2018-12-29T15:54:46.763Z,89.40
2018-12-29T15:57:14.478Z,89.70
2018-12-29T15:59:42.813Z,89.40
2018-12-29T16:02:10.529Z,89.60
2018-12-29T16:04:38.226Z,89.80
2018-12-29T16:07:05.934Z,90.00
2018-12-29T16:09:34.180Z,89.90
2018-12-29T16:12:01.894Z,89.90
2018-12-29T16:14:35.399Z,90.00
2018-12-29T16:16:58.957Z,90.00
2018-12-29T16:19:26.639Z,90.20
2018-12-29T16:21:54.357Z,90.20
2018-12-29T16:24:22.455Z,90.50
2018-12-29T16:26:50.185Z,90.50
2018-12-29T16:29:17.858Z,90.60
2018-12-29T16:31:45.586Z,90.50
2018-12-29T16:34:13.774Z,90.60
2018-12-29T16:36:41.495Z,90.80
2018-12-29T16:39:09.186Z,90.70
2018-12-29T16:41:36.869Z,90.90
2018-12-29T16:44:04.595Z,90.90
2018-12-29T16:46:32.570Z,90.90
2018-12-29T16:49:06.754Z,91.10
2018-12-29T16:51:29.626Z,91.00
2018-12-29T16:53:57.357Z,90.90
2018-12-29T17:01:12.286Z,99.90
2018-12-29T17:03:41.170Z,99.90
2018-12-29T17:06:09.595Z,99.90
2018-12-29T17:09:19.931Z,99.90
2018-12-29T17:11:52.342Z,93.60
2018-12-29T17:14:18.414Z,84.30
2018-12-29T17:16:46.807Z,80.10
2018-12-29T17:19:15.219Z,76.20
2018-12-29T17:21:43.598Z,76.80
2018-12-29T17:24:12.514Z,77.10
2018-12-29T17:26:40.898Z,77.20
2018-12-29T17:29:09.274Z,79.80
2018-12-29T17:31:37.681Z,82.30
2018-12-29T17:34:06.558Z,83.30
2018-12-29T17:36:41.722Z,85.70
2018-12-29T17:39:06.244Z,88.60
2018-12-29T17:41:34.654Z,90.40
2018-12-29T17:44:03.035Z,91.50
2018-12-29T17:46:31.615Z,92.30
2018-12-29T17:49:00.032Z,93.10
2018-12-29T17:51:28.418Z,93.80
2018-12-29T17:53:56.831Z,94.40
2018-12-29T17:56:25.702Z,94.70
2018-12-29T17:58:54.110Z,95.30
2018-12-29T18:01:22.636Z,95.80
2018-12-29T18:03:51.154Z,96.20
2018-12-29T18:06:19.538Z,96.30
2018-12-29T18:08:47.929Z,96.30
2018-12-29T18:11:16.338Z,96.50
2018-12-29T18:13:45.042Z,96.70
2018-12-29T18:16:14.034Z,96.70
2018-12-29T18:18:42.635Z,96.90
2018-12-29T18:21:11.046Z,97.00
2018-12-29T18:23:39.431Z,97.10
2018-12-29T18:26:07.812Z,97.30
2018-12-29T18:28:36.226Z,97.40
2018-12-29T18:31:04.607Z,97.40
2018-12-29T18:33:37.223Z,97.40
2018-12-29T18:36:03.046Z,97.30
2018-12-29T18:38:31.431Z,97.30
2018-12-29T18:40:59.839Z,97.30
2018-12-29T18:43:28.219Z,97.20
2018-12-29T18:45:56.794Z,97.10
2018-12-29T18:48:25.202Z,97.20
2018-12-29T18:50:53.913Z,97.20
2018-12-29T18:53:22.445Z,97.30
2018-12-29T18:55:51.421Z,97.40
2018-12-29T18:58:19.994Z,97.60
2018-12-29T19:00:48.434Z,97.80
2018-12-29T19:03:17.114Z,97.80
2018-12-29T19:05:45.497Z,98.00
2018-12-29T19:08:13.917Z,98.10
2018-12-29T19:10:42.359Z,98.20
2018-12-29T19:13:11.312Z,98.30
2018-12-29T19:15:40.064Z,98.40
2018-12-29T19:18:08.461Z,98.50
2018-12-29T19:20:36.943Z,98.90
2018-12-29T19:23:05.691Z,98.70
2018-12-29T19:25:34.091Z,98.80
2018-12-29T19:28:03.096Z,98.90
2018-12-29T19:30:31.775Z,98.90
2018-12-29T19:33:00.485Z,99.00
2018-12-29T19:35:28.865Z,99.00
2018-12-29T19:37:57.346Z,98.90
2018-12-29T19:40:25.727Z,98.80
2018-12-29T19:42:54.848Z,98.80
2018-12-29T19:45:24.306Z,98.80
2018-12-29T19:47:53.005Z,98.80
2018-12-29T19:50:21.891Z,98.60
2018-12-29T19:52:50.646Z,98.70
2018-12-29T19:55:20.855Z,98.60
2018-12-29T20:29:13.847Z,99.90
2018-12-29T20:31:42.399Z,86.10
2018-12-29T20:34:10.831Z,86.30
2018-12-29T20:37:38.074Z,76.80
2018-12-29T20:40:06.579Z,40.00
2018-12-29T20:42:34.944Z,41.10
2018-12-29T20:45:03.388Z,46.00
2018-12-29T20:47:31.915Z,51.30
2018-12-29T20:50:00.393Z,57.10
2018-12-29T20:52:28.929Z,63.20
2018-12-29T20:54:58.250Z,70.50
2018-12-29T20:57:26.739Z,77.40
2018-12-29T20:59:55.149Z,83.00
2018-12-29T21:02:23.808Z,87.70
2018-12-29T21:04:52.267Z,90.80
2018-12-29T21:07:21.341Z,92.10
2018-12-29T21:09:49.793Z,93.30
2018-12-29T21:12:18.199Z,94.20
2018-12-29T21:14:46.659Z,95.10
2018-12-29T21:17:15.068Z,95.80
2018-12-29T21:19:43.439Z,96.40
2018-12-29T21:22:12.123Z,96.80
2018-12-29T21:24:40.602Z,97.30
2018-12-29T21:27:09.149Z,97.60
2018-12-29T21:29:37.747Z,97.80
